Time;durP1;ratioP1;P1;durP2;ratioP2;P2;SDS_P1;SDS_P2;PMS_P1;PMS_P2;Temp;Humidity;BMP_temperature;BMP_pressure;BME280_temperature;BME280_humidity;BME280_pressure;Samples;Min_cycle;Max_cycle;Signal;HPM_P1;HPM_P2
2023/03/24 00:00:20;;;;;;;25.60;16.17;;;;;;;11.38;88.32;100092.91;5094836;28;20051;-64
2023/03/24 00:02:47;;;;;;;24.92;16.50;;;;;;;11.36;88.02;100086.94;5082800;28;20320;-64
2023/03/24 00:05:20;;;;;;;26.05;15.93;;;;;;;11.39;87.99;100081.31;5090649;28;20053;-64
2023/03/24 00:07:46;;;;;;;26.88;16.27;;;;;;;11.45;87.36;100083.38;5083946;28;20074;-64
2023/03/24 00:10:16;;;;;;;29.23;17.42;;;;;;;11.40;87.29;100084.81;5088366;28;20039;-69
2023/03/24 00:12:43;;;;;;;27.67;16.13;;;;;;;11.43;87.64;100089.78;5093273;28;20272;-63
2023/03/24 00:15:20;;;;;;;29.75;16.15;;;;;;;11.41;87.02;100094.41;5085367;28;20040;-68
2023/03/24 00:17:49;;;;;;;25.73;16.58;;;;;;;11.38;87.13;100082.31;5092962;28;20041;-65
2023/03/24 00:20:15;;;;;;;23.23;15.90;;;;;;;11.38;86.67;100087.63;5081724;28;20211;-68
2023/03/24 00:22:47;;;;;;;29.45;19.15;;;;;;;11.34;86.93;100086.28;5090907;28;20028;-65
2023/03/24 00:25:13;;;;;;;30.25;17.23;;;;;;;11.26;87.36;100080.09;5090435;28;20040;-68
2023/03/24 00:27:39;;;;;;;24.45;15.35;;;;;;;11.08;87.83;100081.00;5088282;28;20378;-64
2023/03/24 00:30:08;;;;;;;28.17;16.65;;;;;;;10.98;88.36;100074.16;5088632;28;20554;-68
2023/03/24 00:32:36;;;;;;;25.77;14.77;;;;;;;10.91;89.32;100081.91;5085292;28;20327;-64
2023/03/24 00:35:03;;;;;;;25.95;16.73;;;;;;;10.84;89.11;100078.22;5087286;28;20388;-64
2023/03/24 00:37:29;;;;;;;26.33;15.95;;;;;;;10.84;88.84;100075.56;5084270;28;20239;-64
2023/03/24 00:39:54;;;;;;;25.58;15.25;;;;;;;10.84;89.56;100075.56;5087773;28;20403;-64
2023/03/24 00:42:21;;;;;;;27.60;16.58;;;;;;;10.76;88.78;100078.16;5088811;28;20027;-65
2023/03/24 00:44:46;;;;;;;29.33;16.90;;;;;;;10.80;88.86;100075.03;5085234;28;20078;-64
2023/03/24 00:47:11;;;;;;;27.58;15.95;;;;;;;10.80;89.28;100069.75;5087431;28;20040;-69
2023/03/24 00:49:47;;;;;;;26.00;15.35;;;;;;;10.81;89.31;100076.69;5083599;28;20048;-69
2023/03/24 00:52:21;;;;;;;31.10;16.55;;;;;;;10.79;89.08;100072.53;5077114;28;20071;-68
2023/03/24 00:54:48;;;;;;;29.75;16.58;;;;;;;10.82;88.87;100073.06;5084327;28;20120;-65
2023/03/24 00:57:21;;;;;;;32.72;17.92;;;;;;;10.76;89.16;100064.91;5089701;28;20086;-64
2023/03/24 00:59:48;;;;;;;27.67;16.25;;;;;;;10.81;89.04;100065.28;5084094;28;20039;-68
2023/03/24 01:02:21;;;;;;;24.13;14.77;;;;;;;10.79;88.65;100064.59;5086078;28;20036;-69
2023/03/24 01:04:52;;;;;;;26.20;15.95;;;;;;;10.81;88.34;100067.91;5093899;28;20044;-64
2023/03/24 01:07:20;;;;;;;28.20;16.25;;;;;;;10.80;87.97;100060.97;5074818;28;20039;-69
2023/03/24 01:09:58;;;;;;;28.95;16.17;;;;;;;10.84;88.06;100055.19;5090523;28;20103;-69
2023/03/24 01:12:29;;;;;;;27.98;17.25;;;;;;;10.84;88.04;100049.91;5090043;28;20040;-65
2023/03/24 01:14:57;;;;;;;24.73;15.57;;;;;;;10.82;87.93;100059.00;5086764;28;20041;-68
2023/03/24 01:17:26;;;;;;;26.10;15.73;;;;;;;10.67;87.92;100064.03;5087995;28;20036;-69
2023/03/24 01:19:52;;;;;;;30.92;16.95;;;;;;;10.72;87.84;100064.38;5080203;28;20218;-69
2023/03/24 01:22:19;;;;;;;30.85;17.35;;;;;;;10.77;87.90;100056.81;5087593;28;20323;-64
2023/03/24 01:24:46;;;;;;;34.42;19.65;;;;;;;10.80;86.99;100050.38;5089346;28;20266;-68
2023/03/24 01:27:12;;;;;;;23.88;15.07;;;;;;;10.71;85.35;100049.47;5087916;28;20532;-64
2023/03/24 01:29:37;;;;;;;20.02;12.75;;;;;;;10.67;83.04;100048.13;5087246;28;20107;-68
2023/03/24 01:32:03;;;;;;;20.42;12.95;;;;;;;10.69;82.92;100042.69;5084925;28;20219;-64
2023/03/24 01:34:28;;;;;;;26.85;15.52;;;;;;;10.73;83.47;100051.97;5086628;28;20048;-64
2023/03/24 01:36:54;;;;;;;29.20;16.10;;;;;;;10.66;84.05;100051.75;5082866;28;20044;-64
2023/03/24 01:39:19;;;;;;;24.85;15.50;;;;;;;10.46;85.28;100040.53;5091362;28;20041;-63
2023/03/24 01:41:45;;;;;;;26.95;17.10;;;;;;;10.46;86.28;100023.81;5082198;28;20105;-63
2023/03/24 01:44:34;;;;;;;29.60;16.05;;;;;;;10.52;85.98;100034.63;5089743;28;20025;-64
2023/03/24 01:47:00;;;;;;;17.33;11.93;;;;;;;10.37;83.67;100033.47;5085004;28;20069;-65
2023/03/24 01:49:33;;;;;;;19.55;12.05;;;;;;;10.27;80.43;100030.09;5083718;28;20041;-65
2023/03/24 01:52:01;;;;;;;16.75;10.95;;;;;;;10.27;80.52;100027.44;5093954;28;20032;-68
2023/03/24 01:54:32;;;;;;;13.18;9.75;;;;;;;10.19;79.88;100019.41;5080389;28;20047;-64
2023/03/24 01:57:05;;;;;;;13.15;9.65;;;;;;;10.21;80.58;100009.53;5070429;28;20121;-68
2023/03/24 01:59:33;;;;;;;11.60;9.15;;;;;;;10.21;80.73;100010.38;5077705;28;20079;-65
2023/03/24 02:02:02;;;;;;;11.60;8.32;;;;;;;10.23;81.00;100013.69;5076586;28;20204;-64
2023/03/24 02:04:42;;;;;;;13.40;9.00;;;;;;;10.29;81.45;100022.00;5076013;28;20040;-64
2023/03/24 02:07:32;;;;;;;21.20;12.85;;;;;;;10.18;82.96;100026.53;5073790;28;20368;-64
2023/03/24 02:09:57;;;;;;;18.23;12.10;;;;;;;10.15;83.64;100018.88;5069917;28;20052;-68
2023/03/24 02:12:23;;;;;;;28.20;15.35;;;;;;;10.17;84.30;100027.50;5078557;28;20093;-64
2023/03/24 02:14:50;;;;;;;29.83;17.40;;;;;;;10.20;85.44;100032.53;5076991;28;20048;-65
2023/03/24 02:17:43;;;;;;;27.15;16.25;;;;;;;10.15;87.51;100024.19;5075749;28;20032;-69
2023/03/24 02:20:30;;;;;;;27.15;16.98;;;;;;;10.07;88.34;100032.03;5079363;28;20330;-68
2023/03/24 02:23:14;;;;;;;31.73;17.60;;;;;;;10.12;89.02;100035.06;5075753;28;20063;-64
2023/03/24 02:25:58;;;;;;;27.90;16.05;;;;;;;10.02;88.99;100039.59;5071551;28;20263;-64
2023/03/24 02:28:40;;;;;;;28.33;17.10;;;;;;;10.02;88.62;100030.84;5075427;28;20113;-64
2023/03/24 02:31:28;;;;;;;29.30;17.35;;;;;;;9.97;88.23;100036.59;5071025;28;20041;-68
2023/03/24 02:34:35;;;;;;;29.85;17.35;;;;;;;9.88;88.31;100034.84;5070232;28;20488;-64
2023/03/24 02:37:26;;;;;;;29.30;17.83;;;;;;;9.95;88.13;100046.47;5075534;28;20063;-68
2023/03/24 02:40:11;;;;;;;31.85;17.95;;;;;;;10.02;86.77;100044.91;5069905;28;20087;-64
2023/03/24 02:42:59;;;;;;;106.47;41.08;;;;;;;10.10;86.08;100042.31;5076152;28;20342;-68
2023/03/24 02:45:25;;;;;;;43.38;22.23;;;;;;;10.06;86.02;100053.34;5076043;28;20107;-68
2023/03/24 02:48:01;;;;;;;31.73;17.50;;;;;;;9.82;83.78;100054.78;5077609;28;20234;-65
2023/03/24 02:50:40;;;;;;;29.35;17.13;;;;;;;9.90;83.16;100057.50;5070412;28;20067;-68
2023/03/24 02:53:26;;;;;;;24.83;15.88;;;;;;;9.74;82.58;100065.28;5075827;28;20036;-68
2023/03/24 02:56:03;;;;;;;27.50;15.65;;;;;;;9.69;83.88;100062.25;5074070;28;20048;-69
2023/03/24 02:58:46;;;;;;;24.25;14.63;;;;;;;9.70;85.21;100057.78;5075198;28;20045;-64
2023/03/24 03:01:30;;;;;;;21.67;13.05;;;;;;;9.55;86.19;100060.09;5072459;28;20142;-68
2023/03/24 03:04:01;;;;;;;20.83;13.38;;;;;;;9.50;85.95;100071.13;5074522;28;20327;-65
2023/03/24 03:06:31;;;;;;;18.67;12.18;;;;;;;9.48;86.11;100077.53;5071946;28;20082;-68
2023/03/24 03:09:00;;;;;;;20.13;12.50;;;;;;;9.54;85.34;100077.78;5076000;28;20036;-65
2023/03/24 03:11:26;;;;;;;20.17;12.13;;;;;;;9.69;84.65;100088.69;5075343;28;20101;-64
2023/03/24 03:14:10;;;;;;;19.65;12.50;;;;;;;9.57;83.77;100095.16;5073179;28;20044;-64
2023/03/24 03:16:37;;;;;;;;;;;;;;;9.49;84.61;100093.25;5071577;28;20048;-65
2023/03/24 03:19:10;;;;;;;18.42;11.43;;;;;;;9.30;84.84;100098.59;5072594;28;19925;-68
2023/03/24 03:21:40;;;;;;;21.00;12.75;;;;;;;9.36;85.01;100107.75;5074337;28;20041;-64
2023/03/24 03:24:10;;;;;;;18.88;12.82;;;;;;;9.47;84.09;100108.41;5073189;28;20252;-68
2023/03/24 03:26:36;;;;;;;23.20;12.57;;;;;;;9.30;84.94;100103.88;5072458;28;20040;-69
2023/03/24 03:29:15;;;;;;;25.45;14.07;;;;;;;9.37;84.70;100089.13;5073254;28;20109;-64
2023/03/24 03:31:48;;;;;;;27.48;14.60;;;;;;;9.55;83.94;100089.19;5071843;28;20036;-64
2023/03/24 03:34:56;;;;;;;25.13;14.30;;;;;;;9.62;83.41;100070.91;5076091;28;20109;-64
2023/03/24 03:37:55;;;;;;;17.83;12.25;;;;;;;9.53;82.25;100041.75;5074807;28;20166;-69
2023/03/24 03:40:28;;;;;;;17.52;12.13;;;;;;;9.49;82.66;100039.56;5074909;28;20052;-69
2023/03/24 03:42:54;;;;;;;26.58;13.25;;;;;;;9.54;82.57;100026.72;5075658;28;20047;-64
2023/03/24 03:45:19;;;;;;;23.10;14.23;;;;;;;9.41;83.10;100031.53;5075483;28;20029;-69
2023/03/24 03:47:45;;;;;;;23.33;13.43;;;;;;;9.38;82.92;100019.44;5075269;28;20372;-68
2023/03/24 03:50:11;;;;;;;20.00;11.93;;;;;;;9.12;83.53;100024.53;5073448;28;20384;-68
2023/03/24 03:52:38;;;;;;;20.98;13.05;;;;;;;8.95;85.21;100025.31;5074923;28;20072;-64
2023/03/24 03:55:05;;;;;;;19.05;12.77;;;;;;;8.97;85.01;100031.28;5075393;28;20306;-64
2023/03/24 03:57:32;;;;;;;23.90;13.98;;;;;;;9.08;84.94;100035.53;5075226;28;20028;-69
2023/03/24 04:00:06;;;;;;;20.60;13.35;;;;;;;9.12;84.61;100035.09;5074381;28;20066;-68
2023/03/24 04:02:47;;;;;;;;;;;;;;;9.28;84.39;100031.84;5075161;28;20199;-68
2023/03/24 04:05:34;;;;;;;17.88;11.02;;;;;;;9.30;83.85;100024.59;5073225;28;20262;-68
2023/03/24 04:08:05;;;;;;;16.65;10.95;;;;;;;9.24;82.98;100033.94;5073318;28;20035;-69
2023/03/24 04:10:53;;;;;;;17.08;11.85;;;;;;;9.27;81.55;100035.47;5075532;28;20075;-68
2023/03/24 04:13:30;;;;;;;21.05;11.63;;;;;;;9.36;82.35;100049.59;5075979;28;20632;-67
2023/03/24 04:16:02;;;;;;;23.70;12.88;;;;;;;9.35;81.48;100051.41;5073940;28;20071;-64
2023/03/24 04:18:44;;;;;;;20.27;12.13;;;;;;;9.37;81.70;100052.13;5075068;28;20035;-64
2023/03/24 04:22:05;;;;;;;34.20;17.40;;;;;;;9.33;82.40;100053.38;5065992;28;20032;-63
2023/03/24 04:24:50;;;;;;;81.15;35.30;;;;;;;9.33;83.15;100048.09;5053037;28;20059;-64
2023/03/24 04:27:25;;;;;;;22.50;13.75;;;;;;;9.38;82.08;100050.31;5073459;28;20041;-68
2023/03/24 04:30:08;;;;;;;22.95;14.00;;;;;;;9.43;82.38;100054.19;5071915;28;20051;-68
2023/03/24 04:32:53;;;;;;;31.27;18.25;;;;;;;9.39;83.15;100057.28;5078626;28;20316;-64
2023/03/24 04:35:32;;;;;;;31.35;18.33;;;;;;;9.37;83.71;100049.50;5077911;28;20104;-68
2023/03/24 04:38:09;;;;;;;30.33;16.52;;;;;;;9.27;83.57;100046.88;5074757;28;20025;-68
2023/03/24 04:40:40;;;;;;;24.60;15.13;;;;;;;9.04;84.71;100045.56;5076877;28;20041;-68
2023/03/24 04:43:08;;;;;;;35.53;19.50;;;;;;;8.70;86.79;100055.00;5078456;28;20349;-64
2023/03/24 04:45:35;;;;;;;51.17;26.05;;;;;;;8.44;88.27;100058.22;5077287;28;20375;-63
2023/03/24 04:48:05;;;;;;;40.40;21.85;;;;;;;8.37;88.77;100053.66;5078450;28;20093;-68
2023/03/24 04:50:40;;;;;;;35.08;20.42;;;;;;;8.40;89.36;100053.38;5077732;28;20056;-65
2023/03/24 04:53:07;;;;;;;37.78;21.17;;;;;;;8.43;88.73;100051.28;5077528;28;20231;-64
2023/03/24 04:55:57;;;;;;;34.15;20.02;;;;;;;8.56;88.34;100054.47;5079062;28;20322;-64
2023/03/24 04:58:22;;;;;;;35.25;18.67;;;;;;;8.74;87.84;100057.19;5072454;28;20032;-68
2023/03/24 05:00:48;;;;;;;34.33;19.70;;;;;;;8.96;87.03;100054.22;5075428;28;20338;-64
2023/03/24 05:03:15;;;;;;;24.75;14.23;;;;;;;9.01;85.60;100056.44;5077528;28;20043;-64
2023/03/24 05:05:43;;;;;;;22.13;14.05;;;;;;;8.92;86.56;100059.94;5078071;28;20032;-64
2023/03/24 05:08:09;;;;;;;23.40;13.90;;;;;;;8.97;86.51;100065.63;5078151;28;20040;-63
2023/03/24 05:10:35;;;;;;;23.00;13.05;;;;;;;9.05;86.46;100070.19;5078448;28;20028;-68
2023/03/24 05:13:01;;;;;;;23.08;13.05;;;;;;;9.08;86.63;100076.00;5079525;28;20045;-68
2023/03/24 05:15:27;;;;;;;20.92;13.48;;;;;;;8.92;86.88;100078.41;5078002;28;20049;-68
2023/03/24 05:17:52;;;;;;;22.48;12.80;;;;;;;8.98;86.75;100077.00;5076745;28;20032;-68
2023/03/24 05:20:18;;;;;;;19.90;12.25;;;;;;;8.79;87.36;100086.66;5078167;28;20039;-69
2023/03/24 05:22:43;;;;;;;20.73;11.85;;;;;;;8.83;86.41;100085.38;5078788;28;20281;-68
2023/03/24 05:25:09;;;;;;;26.73;14.23;;;;;;;8.92;85.64;100079.25;5079862;28;20045;-68
2023/03/24 05:27:35;;;;;;;25.35;12.73;;;;;;;8.87;86.92;100081.50;5078684;28;20037;-68
2023/03/24 05:30:00;;;;;;;24.08;13.52;;;;;;;9.23;85.80;100092.22;5078013;28;20077;-68
2023/03/24 05:32:26;;;;;;;20.67;11.25;;;;;;;9.51;85.16;100093.94;5081579;28;20051;-64
2023/03/24 05:34:51;;;;;;;20.88;11.35;;;;;;;9.56;85.18;100090.84;5076856;28;20217;-65
2023/03/24 05:37:17;;;;;;;18.95;11.52;;;;;;;9.50;85.50;100094.06;5076962;28;20043;-64
2023/03/24 05:39:43;;;;;;;22.85;11.55;;;;;;;9.64;85.40;100095.41;5077630;28;20043;-68
2023/03/24 05:42:09;;;;;;;25.20;13.52;;;;;;;9.80;85.04;100107.00;5077620;28;20033;-69
2023/03/24 05:44:34;;;;;;;25.60;15.15;;;;;;;9.87;84.77;100100.13;5076726;28;20041;-64
2023/03/24 05:47:00;;;;;;;18.35;11.95;;;;;;;9.85;85.03;100093.31;5076656;28;20040;-67
2023/03/24 05:49:25;;;;;;;21.08;13.52;;;;;;;9.85;85.44;100101.25;5075745;28;20047;-68
2023/03/24 05:51:51;;;;;;;43.80;26.02;;;;;;;9.90;86.62;100101.66;5076655;28;20051;-68
2023/03/24 05:54:16;;;;;;;23.25;14.15;;;;;;;10.02;86.02;100108.38;5075865;28;20028;-68
2023/03/24 05:56:42;;;;;;;24.50;12.27;;;;;;;9.83;85.97;100104.06;5076945;28;20107;-68
2023/03/24 05:59:07;;;;;;;18.80;11.10;;;;;;;9.85;87.26;100117.13;5075586;28;20286;-64
2023/03/24 06:01:33;;;;;;;40.72;21.33;;;;;;;10.15;86.64;100108.84;5076521;28;20040;-64
2023/03/24 06:03:58;;;;;;;28.30;16.48;;;;;;;10.46;85.12;100121.78;5074586;28;20070;-64
2023/03/24 06:06:25;;;;;;;19.75;13.40;;;;;;;10.76;85.02;100118.72;5076985;28;20222;-69
2023/03/24 06:08:53;;;;;;;21.52;13.50;;;;;;;10.94;83.03;100113.38;5074574;28;20103;-63
2023/03/24 06:11:18;;;;;;;18.60;12.40;;;;;;;10.57;83.83;100118.88;5075884;28;20028;-69
2023/03/24 06:13:44;;;;;;;24.55;13.10;;;;;;;10.79;84.81;100121.06;5074454;28;20368;-68
2023/03/24 06:16:09;;;;;;;19.90;12.77;;;;;;;10.92;84.10;100119.81;5075916;28;20052;-68
2023/03/24 06:18:35;;;;;;;16.02;11.50;;;;;;;11.06;84.30;100124.56;5074444;28;20053;-69
2023/03/24 06:21:00;;;;;;;19.58;12.18;;;;;;;11.35;83.10;100119.75;5074106;28;20051;-69
2023/03/24 06:23:27;;;;;;;19.05;11.77;;;;;;;11.60;83.54;100120.72;5076223;28;20094;-68
2023/03/24 06:25:54;;;;;;;19.38;13.10;;;;;;;11.69;83.88;100119.78;5074077;28;20055;-64
2023/03/24 06:28:21;;;;;;;18.73;12.70;;;;;;;12.06;83.08;100121.25;5075346;28;20281;-64
2023/03/24 06:30:47;;;;;;;19.67;12.65;;;;;;;12.39;81.80;100116.81;5074053;28;20040;-68
2023/03/24 06:33:13;;;;;;;16.85;12.18;;;;;;;12.72;81.08;100117.69;5075646;28;20028;-64
2023/03/24 06:35:39;;;;;;;14.73;11.23;;;;;;;12.99;80.11;100119.16;5075243;28;20075;-69
2023/03/24 06:38:05;;;;;;;18.67;11.55;;;;;;;13.20;79.47;100119.47;5075008;28;20028;-64
2023/03/24 06:40:32;;;;;;;15.50;10.82;;;;;;;13.36;79.05;100122.09;5074924;28;20040;-69
2023/03/24 06:42:58;;;;;;;17.55;11.43;;;;;;;13.54;78.59;100116.56;5074598;28;20036;-64
2023/03/24 06:45:23;;;;;;;19.58;12.15;;;;;;;13.67;78.24;100122.19;5077241;28;20074;-69
2023/03/24 06:47:56;;;;;;;19.85;11.57;;;;;;;13.86;77.79;100126.25;5074689;28;20052;-69
2023/03/24 06:50:25;;;;;;;15.98;10.75;;;;;;;14.14;77.96;100128.44;5074260;28;20290;-68
2023/03/24 06:52:52;;;;;;;17.52;10.88;;;;;;;14.32;77.26;100132.47;5075381;28;20036;-65
2023/03/24 06:55:18;;;;;;;19.05;11.75;;;;;;;14.40;76.17;100134.25;5075759;28;20095;-69
2023/03/24 06:57:43;;;;;;;16.75;11.52;;;;;;;14.59;76.39;100133.00;5077324;28;20047;-64
2023/03/24 07:00:10;;;;;;;16.67;11.50;;;;;;;14.78;75.85;100129.84;5074962;28;20341;-65
2023/03/24 07:02:37;;;;;;;16.95;11.43;;;;;;;14.83;75.61;100130.13;5075879;28;20031;-64
2023/03/24 07:05:08;;;;;;;17.70;11.40;;;;;;;14.81;75.51;100132.16;5075082;28;20040;-65
2023/03/24 07:07:34;;;;;;;17.00;11.70;;;;;;;14.94;75.24;100135.03;5075306;28;20034;-65
2023/03/24 07:10:00;;;;;;;16.38;11.65;;;;;;;15.28;74.67;100136.38;5076217;28;20081;-64
2023/03/24 07:12:26;;;;;;;17.38;11.18;;;;;;;15.50;73.39;100130.13;5075039;28;20099;-69
2023/03/24 07:14:51;;;;;;;18.48;11.38;;;;;;;15.70;72.67;100138.47;5075934;28;20242;-65
2023/03/24 07:17:17;;;;;;;17.40;11.73;;;;;;;15.68;72.44;100131.66;5074482;28;20036;-69
2023/03/24 07:19:44;;;;;;;18.15;10.70;;;;;;;15.83;72.11;100135.97;5075717;28;20035;-65
2023/03/24 07:22:10;;;;;;;19.35;11.50;;;;;;;15.66;73.48;100131.84;5075296;28;20025;-66
2023/03/24 07:24:35;;;;;;;18.83;12.10;;;;;;;15.52;73.54;100124.59;5075500;28;20041;-69
2023/03/24 07:27:01;;;;;;;16.20;11.45;;;;;;;15.32;74.78;100132.34;5073930;28;20036;-69
2023/03/24 07:29:26;;;;;;;17.55;10.90;;;;;;;15.64;72.91;100137.38;5074496;28;20040;-64
2023/03/24 07:31:53;;;;;;;19.95;12.43;;;;;;;15.97;72.04;100139.63;5073597;28;20570;-68
2023/03/24 07:34:19;;;;;;;15.02;10.57;;;;;;;16.03;69.61;100133.53;5073778;28;20045;-68
2023/03/24 07:36:44;;;;;;;18.73;12.30;;;;;;;16.15;70.85;100132.03;5075620;28;20039;-64
2023/03/24 07:39:09;;;;;;;17.02;11.48;;;;;;;16.37;69.83;100129.38;5073801;28;20048;-69
2023/03/24 07:41:35;;;;;;;16.05;11.38;;;;;;;16.45;69.20;100123.91;5075178;28;20040;-69
2023/03/24 07:44:01;;;;;;;17.35;11.43;;;;;;;16.82;68.11;100113.00;5074342;28;20044;-69
2023/03/24 07:46:27;;;;;;;16.58;11.10;;;;;;;16.94;66.19;100120.47;5074877;28;20277;-65
2023/03/24 07:48:52;;;;;;;16.40;10.90;;;;;;;16.84;66.24;100112.78;5073198;28;20214;-65
2023/03/24 07:51:18;;;;;;;16.45;11.27;;;;;;;16.82;66.32;100107.63;5075003;28;20035;-69
2023/03/24 07:53:46;;;;;;;16.48;11.55;;;;;;;16.69;67.19;100102.19;5074294;28;20508;-64
2023/03/24 07:56:12;;;;;;;18.92;12.00;;;;;;;16.50;67.54;100110.78;5074442;28;20024;-69
2023/03/24 07:58:37;;;;;;;17.35;11.20;;;;;;;16.85;68.63;100101.91;5074444;28;20385;-65
2023/03/24 08:01:09;;;;;;;23.90;13.50;;;;;;;17.06;67.55;100108.22;5074789;28;20029;-69
2023/03/24 08:03:35;;;;;;;19.88;12.02;;;;;;;17.20;67.17;100105.44;5076793;28;20227;-69
2023/03/24 08:06:02;;;;;;;17.40;11.98;;;;;;;17.26;67.63;100103.00;5077212;28;20258;-64
2023/03/24 08:08:27;;;;;;;14.10;10.52;;;;;;;17.29;66.48;100100.75;5076622;28;20380;-65
2023/03/24 08:10:53;;;;;;;19.23;11.35;;;;;;;17.44;66.90;100098.78;5078201;28;20036;-68
2023/03/24 08:13:18;;;;;;;15.40;11.18;;;;;;;17.53;66.39;100097.59;5076992;28;20035;-68
2023/03/24 08:15:44;;;;;;;18.45;12.55;;;;;;;17.56;66.91;100099.06;5076581;28;20048;-69
2023/03/24 08:18:09;;;;;;;16.77;12.00;;;;;;;17.70;66.02;100092.78;5075963;28;20047;-65
2023/03/24 08:20:35;;;;;;;16.15;11.55;;;;;;;17.54;66.24;100090.38;5077074;28;20078;-64
2023/03/24 08:23:03;;;;;;;17.15;11.13;;;;;;;17.31;68.15;100090.69;5075882;28;20356;-64
2023/03/24 08:25:29;;;;;;;16.08;11.18;;;;;;;16.73;70.14;100084.72;5077003;28;20646;-66
2023/03/24 08:27:55;;;;;;;17.50;12.05;;;;;;;16.78;70.56;100079.63;5075314;28;20028;-69
2023/03/24 08:30:23;;;;;;;16.27;10.98;;;;;;;16.86;70.28;100084.00;5076164;28;20043;-64
2023/03/24 08:32:52;;;;;;;14.57;11.23;;;;;;;16.40;70.65;100075.53;5077498;28;20112;-64
2023/03/24 08:35:20;;;;;;;16.30;12.00;;;;;;;16.09;72.73;100073.19;5076224;28;20067;-69
2023/03/24 08:37:46;;;;;;;15.82;11.77;;;;;;;15.68;73.73;100076.41;5076407;28;20032;-65
2023/03/24 08:40:19;;;;;;;15.10;11.73;;;;;;;15.88;73.69;100074.81;5076771;28;20478;-69
2023/03/24 08:42:48;;;;;;;17.52;12.15;;;;;;;16.02;73.25;100074.94;5076734;28;20040;-69
2023/03/24 08:45:14;;;;;;;15.35;11.40;;;;;;;16.27;72.81;100070.91;5078200;28;20036;-65
2023/03/24 08:47:40;;;;;;;14.93;10.32;;;;;;;16.43;71.05;100067.13;5075772;28;20031;-64
2023/03/24 08:50:08;;;;;;;15.35;10.60;;;;;;;16.46;71.79;100053.38;5079253;28;20063;-68
2023/03/24 08:52:34;;;;;;;16.08;10.43;;;;;;;16.60;69.81;100061.31;5076759;28;20393;-64
2023/03/24 08:54:59;;;;;;;13.52;10.68;;;;;;;16.66;69.39;100048.25;5077125;28;20032;-65
2023/03/24 08:57:25;;;;;;;14.60;10.48;;;;;;;16.72;70.16;100048.31;5076588;28;20028;-64
2023/03/24 08:59:51;;;;;;;15.48;9.93;;;;;;;16.96;69.58;100047.03;5076772;28;20037;-65
2023/03/24 09:02:16;;;;;;;15.90;10.50;;;;;;;17.08;68.85;100050.00;5075920;28;20033;-69
2023/03/24 09:04:42;;;;;;;14.35;10.48;;;;;;;17.20;68.85;100045.75;5078379;28;20319;-69
2023/03/24 09:07:09;;;;;;;13.98;10.35;;;;;;;17.40;66.22;100054.69;5075869;28;20040;-69
2023/03/24 09:09:34;;;;;;;13.52;9.70;;;;;;;17.53;66.74;100051.25;5076337;28;20683;-64
2023/03/24 09:12:00;;;;;;;11.20;9.40;;;;;;;17.32;64.72;100048.69;5076143;28;20378;-65
2023/03/24 09:14:26;;;;;;;13.88;9.57;;;;;;;17.35;65.10;100046.44;5075777;28;20032;-69
2023/03/24 09:16:51;;;;;;;13.43;9.48;;;;;;;17.07;66.00;100048.34;5076525;28;20051;-65
2023/03/24 09:19:17;;;;;;;14.27;9.50;;;;;;;17.08;65.26;100050.81;5074845;28;20024;-65
2023/03/24 09:21:47;;;;;;;11.45;8.35;;;;;;;17.32;64.35;100049.50;5077255;28;20459;-65
2023/03/24 09:24:13;;;;;;;11.98;8.38;;;;;;;17.32;63.90;100044.16;5076412;28;20047;-64
2023/03/24 09:26:38;;;;;;;12.05;8.90;;;;;;;17.46;64.73;100040.50;5075076;28;20040;-65
2023/03/24 09:29:04;;;;;;;12.77;9.05;;;;;;;17.49;64.41;100037.44;5076684;28;20327;-65
2023/03/24 09:31:29;;;;;;;12.50;9.02;;;;;;;17.55;65.51;100036.63;5075495;28;20342;-69
2023/03/24 09:33:54;;;;;;;11.95;9.70;;;;;;;17.44;65.60;100033.72;5075888;28;20326;-64
2023/03/24 09:36:20;;;;;;;13.20;8.90;;;;;;;17.43;64.01;100027.53;5075539;28;20089;-66
2023/03/24 09:38:45;;;;;;;15.32;9.30;;;;;;;17.39;64.58;100020.91;5075509;28;20040;-69
2023/03/24 09:41:21;;;;;;;11.15;8.38;;;;;;;17.54;65.63;100018.91;5075866;28;20031;-65
2023/03/24 09:43:50;;;;;;;12.60;8.38;;;;;;;17.28;65.70;100015.31;5076121;28;20044;-69
2023/03/24 09:46:32;;;;;;;10.27;8.50;;;;;;;17.11;65.38;100012.13;5074751;28;20044;-69
2023/03/24 09:48:57;;;;;;;13.48;9.02;;;;;;;17.27;66.81;100006.47;5075567;28;20032;-69
2023/03/24 09:51:38;;;;;;;11.13;8.63;;;;;;;17.23;65.49;100011.38;5077742;28;20042;-65
2023/03/24 09:54:07;;;;;;;11.95;8.15;;;;;;;17.01;64.84;100007.16;5077892;28;20108;-66
2023/03/24 09:56:36;;;;;;;14.50;9.80;;;;;;;17.05;66.47;100004.91;5075356;28;20346;-69
2023/03/24 09:59:06;;;;;;;13.32;9.88;;;;;;;16.75;66.40;99998.97;5075427;28;20032;-67
2023/03/24 10:01:35;;;;;;;16.00;9.77;;;;;;;16.80;68.20;99997.34;5075870;28;20141;-64
2023/03/24 10:04:01;;;;;;;15.23;10.02;;;;;;;16.98;68.85;99993.34;5073286;28;20091;-64
2023/03/24 10:06:38;;;;;;;14.77;9.27;;;;;;;17.06;67.07;99988.66;5076419;28;20122;-69
2023/03/24 10:09:24;;;;;;;15.02;9.30;;;;;;;17.13;67.71;99978.00;5074544;28;20066;-69
2023/03/24 10:11:59;;;;;;;13.40;9.32;;;;;;;16.75;66.32;99982.91;5074479;28;20338;-65
2023/03/24 10:14:40;;;;;;;13.95;8.85;;;;;;;16.84;65.93;99979.06;5074390;28;20043;-69
2023/03/24 10:17:21;;;;;;;14.05;9.23;;;;;;;16.57;69.20;99970.00;5074697;28;20102;-69
2023/03/24 10:19:47;;;;;;;13.23;9.85;;;;;;;16.47;69.30;99972.19;5075867;28;20398;-64
2023/03/24 10:22:15;;;;;;;11.07;8.48;;;;;;;16.47;67.84;99972.19;5074751;28;20146;-66
2023/03/24 10:25:00;;;;;;;12.05;8.98;;;;;;;16.63;66.70;99966.53;5075149;28;20047;-65
2023/03/24 10:27:44;;;;;;;15.25;8.70;;;;;;;16.67;65.76;99969.72;5075564;28;20028;-69
2023/03/24 10:30:32;;;;;;;11.40;8.30;;;;;;;16.79;66.79;99962.78;5074939;28;20040;-68
2023/03/24 10:32:57;;;;;;;12.57;9.45;;;;;;;16.84;69.62;99963.03;5076064;28;20086;-69
2023/03/24 10:35:29;;;;;;;13.75;8.90;;;;;;;16.54;65.79;99965.84;5074778;28;20032;-65
2023/03/24 10:37:58;;;;;;;12.40;8.70;;;;;;;16.77;64.35;99956.81;5075179;28;20639;-64
2023/03/24 10:40:32;;;;;;;13.25;9.40;;;;;;;16.93;63.79;99951.13;5075860;28;20067;-65
2023/03/24 10:43:00;;;;;;;15.20;8.77;;;;;;;17.07;64.49;99960.06;5074738;28;20046;-65
2023/03/24 10:45:29;;;;;;;14.05;9.07;;;;;;;17.17;66.71;99953.31;5072693;28;20048;-69
2023/03/24 10:47:58;;;;;;;14.27;9.55;;;;;;;16.83;66.82;99948.00;5074758;28;20034;-69
2023/03/24 10:50:27;;;;;;;15.43;9.32;;;;;;;16.85;67.60;99938.75;5075575;28;20566;-69
2023/03/24 10:52:54;;;;;;;14.43;9.73;;;;;;;16.61;66.14;99947.19;5075819;28;20082;-69
2023/03/24 10:55:23;;;;;;;13.20;9.55;;;;;;;16.70;66.77;99945.25;5073482;28;20033;-70
2023/03/24 10:57:52;;;;;;;13.38;9.75;;;;;;;16.72;65.90;99930.66;5073972;28;20028;-69
2023/03/24 11:00:25;;;;;;;17.27;10.77;;;;;;;16.92;65.35;99933.44;5073250;28;20068;-65
2023/03/24 11:03:15;;;;;;;15.25;10.15;;;;;;;17.10;66.90;99923.03;5073894;28;20056;-69
2023/03/24 11:05:43;;;;;;;14.90;9.43;;;;;;;17.23;66.07;99924.94;5071667;28;20063;-65
2023/03/24 11:08:21;;;;;;;14.60;9.88;;;;;;;17.01;67.30;99921.53;5074585;28;20326;-64
2023/03/24 11:10:46;;;;;;;14.30;9.63;;;;;;;16.93;67.56;99916.38;5073768;28;20238;-65
2023/03/24 11:13:37;;;;;;;14.30;9.70;;;;;;;17.04;66.24;99907.78;5075340;28;20033;-64
2023/03/24 11:16:15;;;;;;;12.18;9.55;;;;;;;16.97;69.13;99903.41;5072562;28;20350;-69
2023/03/24 11:19:01;;;;;;;13.18;9.27;;;;;;;16.95;67.71;99895.59;5073548;28;20736;-65
2023/03/24 11:21:29;;;;;;;12.02;9.60;;;;;;;17.10;66.51;99890.91;5075090;28;20054;-70
2023/03/24 11:23:58;;;;;;;12.48;9.13;;;;;;;17.21;63.99;99890.34;5072735;28;20091;-69
2023/03/24 11:26:34;;;;;;;12.73;8.73;;;;;;;17.15;64.14;99885.78;5072316;28;20040;-65
2023/03/24 11:29:23;;;;;;;11.95;8.52;;;;;;;17.08;65.01;99876.91;5074499;28;20254;-69